Terminal Aerodrome Forecast
Issued by NWS

Current Version | Previous Version | Text Only | Print | Product List | Glossary On
Versions: 1 2 3 4 5 6 7 8 9 10 11 12
864
FTUS46 KSTO 140545
TAFMHR
TAF
KMHR 140545Z 1406/1506 VRB04KT P6SM SCT250
      TEMPO 1414/1416 4SM BR
     FM141800 33012G20KT P6SM FEW250=

USA.gov is the U.S. government's official web portal to all federal, state and local government web resources and services.